Time;durP1;ratioP1;P1;durP2;ratioP2;P2;SDS_P1;SDS_P2;PMS_P1;PMS_P2;Temp;Humidity;BMP_temperature;BMP_pressure;BME280_temperature;BME280_humidity;BME280_pressure;Samples;Min_cycle;Max_cycle;Signal;HPM_P1;HPM_P2
2023/07/16 00:00:26;;;;;;;5.37;1.50;;;;;;;-145.18;100.00;46609.59;5074617;28;20541;-61
2023/07/16 00:02:52;;;;;;;9.00;1.60;;;;;;;-145.18;100.00;46599.84;5073178;28;20392;-61
2023/07/16 00:05:17;;;;;;;6.10;1.80;;;;;;;-145.18;100.00;46584.22;5074821;28;20101;-61
2023/07/16 00:07:43;;;;;;;8.57;2.37;;;;;;;-145.18;100.00;46576.41;5074416;28;20506;-61
2023/07/16 00:10:09;;;;;;;6.60;1.60;;;;;;;-145.18;100.00;46578.34;5074824;28;20024;-61
2023/07/16 00:12:34;;;;;;;10.33;2.00;;;;;;;-145.18;100.00;46582.25;5074238;28;20032;-61
2023/07/16 00:14:59;;;;;;;3.50;1.43;;;;;;;-145.18;100.00;46578.34;5074586;28;20024;-61
2023/07/16 00:17:25;;;;;;;5.50;1.60;;;;;;;-145.18;100.00;46574.44;5072640;28;20035;-61
2023/07/16 00:19:50;;;;;;;4.17;1.57;;;;;;;-145.18;100.00;46576.41;5073919;28;20028;-61
2023/07/16 00:22:15;;;;;;;11.43;2.10;;;;;;;-145.18;100.00;46570.53;5072573;28;20076;-61
2023/07/16 00:24:41;;;;;;;6.77;1.70;;;;;;;-145.18;100.00;46574.44;5074431;28;20032;-61
2023/07/16 00:27:06;;;;;;;7.70;1.80;;;;;;;-145.18;100.00;46564.69;5056229;28;20032;-61
2023/07/16 00:29:32;;;;;;;7.80;1.70;;;;;;;-145.18;100.00;46584.22;5074680;28;20111;-61
2023/07/16 00:31:57;;;;;;;6.80;1.83;;;;;;;-145.18;100.00;46566.63;5074749;28;20032;-61
2023/07/16 00:34:22;;;;;;;6.63;1.93;;;;;;;-145.18;100.00;46564.69;5074241;28;20085;-61
2023/07/16 00:36:48;;;;;;;12.00;1.90;;;;;;;-145.18;100.00;46570.53;5073869;28;20024;-61
2023/07/16 00:39:13;;;;;;;12.60;2.20;;;;;;;-145.18;100.00;46564.69;5074197;28;20379;-61
2023/07/16 00:41:39;;;;;;;4.27;1.77;;;;;;;-145.18;100.00;46570.53;5074113;28;20032;-61
2023/07/16 00:44:05;;;;;;;5.70;1.80;;;;;;;-145.18;100.00;46572.50;5073917;28;20413;-61
2023/07/16 00:46:30;;;;;;;5.67;2.00;;;;;;;-145.18;100.00;46556.88;5073907;28;20032;-61
2023/07/16 00:48:56;;;;;;;9.20;2.00;;;;;;;-145.18;100.00;46578.34;5073945;28;20016;-61
2023/07/16 00:51:24;;;;;;;6.50;2.13;;;;;;;-145.18;100.00;46562.72;5073818;28;20056;-61
2023/07/16 00:53:49;;;;;;;6.57;1.87;;;;;;;-145.18;100.00;46574.44;5073797;28;20058;-61
2023/07/16 00:56:17;;;;;;;5.57;1.73;;;;;;;-145.18;100.00;46570.53;5073318;28;20067;-61
2023/07/16 00:58:43;;;;;;;7.03;2.30;;;;;;;-145.18;100.00;46570.53;5073375;28;20403;-61
2023/07/16 01:01:08;;;;;;;5.37;2.10;;;;;;;-145.18;100.00;46562.72;5073762;28;20028;-61
2023/07/16 01:03:33;;;;;;;7.90;1.83;;;;;;;-145.18;100.00;46568.59;5064942;28;20393;-61
2023/07/16 01:06:11;;;;;;;8.70;2.27;;;;;;;-145.18;100.00;46556.88;5068711;28;20032;-61
2023/07/16 01:08:48;;;;;;;4.50;1.77;;;;;;;-145.18;100.00;46556.88;5073164;28;20021;-61
2023/07/16 01:11:15;;;;;;;10.27;2.03;;;;;;;-145.18;100.00;46570.53;5073573;28;20059;-61
2023/07/16 01:13:42;;;;;;;7.03;2.20;;;;;;;-145.18;100.00;46558.81;5073277;28;20401;-61
2023/07/16 01:16:24;;;;;;;5.10;2.33;;;;;;;-145.18;100.00;46568.59;5073527;28;20031;-61
2023/07/16 01:18:50;;;;;;;7.50;2.37;;;;;;;-145.18;100.00;46574.44;5072693;28;20025;-61
2023/07/16 01:21:19;;;;;;;10.37;2.60;;;;;;;-145.18;100.00;46562.72;5065978;28;20045;-61
2023/07/16 01:24:02;;;;;;;8.03;2.73;;;;;;;-145.18;100.00;46564.69;5068191;28;20068;-61
2023/07/16 01:27:17;;;;;;;8.40;2.50;;;;;;;-145.18;100.00;46566.63;5073044;28;20130;-61
2023/07/16 01:29:48;;;;;;;9.60;2.53;;;;;;;-145.18;100.00;46568.59;5069104;28;20068;-61
2023/07/16 01:32:15;;;;;;;10.93;3.03;;;;;;;-145.18;100.00;46562.72;5078405;28;20059;-61
2023/07/16 01:34:42;;;;;;;10.60;3.00;;;;;;;-145.18;100.00;46562.72;5072498;28;20032;-61
2023/07/16 01:37:08;;;;;;;8.70;2.90;;;;;;;-145.18;100.00;46562.72;5072271;28;20063;-61
2023/07/16 01:39:34;;;;;;;5.53;2.43;;;;;;;-145.18;100.00;46566.63;5072527;28;20105;-60
2023/07/16 01:41:59;;;;;;;12.03;2.73;;;;;;;-145.18;100.00;46560.78;5071180;28;20036;-61
2023/07/16 01:44:25;;;;;;;8.50;3.13;;;;;;;-145.18;100.00;46562.72;5072426;28;20051;-61
2023/07/16 01:47:05;;;;;;;4.77;2.00;;;;;;;-145.18;100.00;46556.88;5072538;28;20420;-61
2023/07/16 01:49:30;;;;;;;7.33;2.63;;;;;;;-145.18;100.00;46554.91;5059932;28;20025;-61
2023/07/16 01:51:55;;;;;;;12.47;2.37;;;;;;;-145.18;100.00;46560.78;5071591;28;20071;-61
2023/07/16 01:54:21;;;;;;;6.93;2.50;;;;;;;-145.18;100.00;46556.88;5072412;28;20306;-61
2023/07/16 01:56:46;;;;;;;10.47;2.87;;;;;;;-145.18;100.00;46568.59;5072011;28;20028;-61
2023/07/16 01:59:12;;;;;;;8.40;3.00;;;;;;;-145.18;100.00;46570.53;5072608;28;20400;-61
2023/07/16 02:01:37;;;;;;;7.10;2.70;;;;;;;-145.18;100.00;46566.63;5065702;28;20077;-61
2023/07/16 02:04:03;;;;;;;8.10;2.43;;;;;;;-145.18;100.00;46562.72;5072760;28;20032;-61
2023/07/16 02:06:28;;;;;;;9.77;2.57;;;;;;;-145.18;100.00;46568.59;5070735;28;20036;-61
2023/07/16 02:08:53;;;;;;;9.77;2.97;;;;;;;-145.18;100.00;46568.59;5062738;28;20031;-61
2023/07/16 02:11:19;;;;;;;9.83;2.37;;;;;;;-145.18;100.00;46568.59;5071756;28;20044;-61
2023/07/16 02:13:44;;;;;;;9.40;2.53;;;;;;;-145.18;100.00;46564.69;5072463;28;20036;-60
2023/07/16 02:16:09;;;;;;;7.80;2.93;;;;;;;-145.18;100.00;46562.72;5071003;28;20029;-61
2023/07/16 02:18:35;;;;;;;9.43;2.93;;;;;;;-145.18;100.00;46566.63;5071921;28;20119;-61
2023/07/16 02:21:02;;;;;;;14.10;2.97;;;;;;;-145.18;100.00;46566.63;5072023;28;20056;-61
2023/07/16 02:23:27;;;;;;;6.57;2.10;;;;;;;-145.18;100.00;46566.63;5072313;28;20032;-61
2023/07/16 02:25:52;;;;;;;7.80;2.50;;;;;;;-145.18;100.00;46568.59;5070554;28;20028;-61
2023/07/16 02:28:18;;;;;;;4.77;2.53;;;;;;;-145.18;100.00;46564.69;5072105;28;20024;-61
2023/07/16 02:30:43;;;;;;;7.03;2.43;;;;;;;-145.18;100.00;46566.63;5072085;28;20457;-61
2023/07/16 02:33:09;;;;;;;7.73;2.80;;;;;;;-145.18;100.00;46568.59;5071942;28;20032;-61
2023/07/16 02:35:34;;;;;;;8.83;2.57;;;;;;;-145.18;100.00;46566.63;5071664;28;20434;-61
2023/07/16 02:37:59;;;;;;;8.03;2.63;;;;;;;-145.18;100.00;46566.63;5072006;28;20056;-61
2023/07/16 02:40:25;;;;;;;5.03;2.50;;;;;;;-145.18;100.00;46560.78;5071941;28;20365;-61
2023/07/16 02:42:50;;;;;;;9.53;3.20;;;;;;;-145.18;100.00;46564.69;5071505;28;20123;-61
2023/07/16 02:45:15;;;;;;;8.43;2.50;;;;;;;-145.18;100.00;46564.69;5071833;28;20037;-61
2023/07/16 02:47:41;;;;;;;7.13;2.83;;;;;;;-145.18;100.00;46556.88;5070132;28;20509;-61
2023/07/16 02:50:07;;;;;;;5.50;2.70;;;;;;;-145.18;100.00;46562.72;5070257;28;20115;-61
2023/07/16 02:52:32;;;;;;;5.90;2.37;;;;;;;-145.18;100.00;46554.91;5071362;28;20036;-61
2023/07/16 02:54:57;;;;;;;11.07;2.80;;;;;;;-145.18;100.00;46562.72;5070645;28;20040;-61
2023/07/16 02:57:23;;;;;;;6.83;2.97;;;;;;;-145.18;100.00;46558.81;5071805;28;20064;-61
2023/07/16 02:59:48;;;;;;;8.77;2.20;;;;;;;-145.18;100.00;46558.81;5071508;28;20024;-61
2023/07/16 03:02:13;;;;;;;5.80;2.40;;;;;;;-145.18;100.00;46566.63;5071658;28;20060;-61
2023/07/16 03:04:39;;;;;;;5.83;2.20;;;;;;;-145.18;100.00;46564.69;5071711;28;20045;-61
2023/07/16 03:07:05;;;;;;;8.53;2.30;;;;;;;-145.18;100.00;46609.59;5070949;28;20075;-60
2023/07/16 03:09:30;;;;;;;12.23;3.50;;;;;;;-145.18;100.00;46611.56;5070775;28;20068;-61
2023/07/16 03:11:55;;;;;;;5.70;1.90;;;;;;;-145.18;100.00;46619.38;5071396;28;20381;-61
2023/07/16 03:14:21;;;;;;;6.80;2.60;;;;;;;-145.18;100.00;46619.38;5070254;28;20032;-61
2023/07/16 03:16:46;;;;;;;11.97;2.50;;;;;;;-145.18;100.00;46629.13;5070857;28;20483;-61
2023/07/16 03:19:12;;;;;;;10.50;3.03;;;;;;;-145.18;100.00;46629.13;5071333;28;20036;-60
2023/07/16 03:21:37;;;;;;;5.47;2.20;;;;;;;-145.18;100.00;46627.19;5071181;28;20052;-65
2023/07/16 03:24:03;;;;;;;6.33;2.70;;;;;;;-145.18;100.00;46627.19;5071140;28;20025;-64
2023/07/16 03:26:29;;;;;;;9.50;3.30;;;;;;;-145.18;100.00;46623.28;5071173;28;20083;-64
2023/07/16 03:28:55;;;;;;;8.73;3.07;;;;;;;-145.18;100.00;46617.41;5074764;28;20373;-64
2023/07/16 03:31:20;;;;;;;6.50;3.00;;;;;;;-145.18;100.00;46609.59;5075005;28;20032;-64
2023/07/16 03:33:46;;;;;;;8.97;3.63;;;;;;;-145.18;100.00;46564.69;5075250;28;20075;-65
2023/07/16 03:36:11;;;;;;;9.27;3.03;;;;;;;-145.18;100.00;46560.78;5075097;28;20119;-64
2023/07/16 03:38:36;;;;;;;7.33;2.80;;;;;;;-145.18;100.00;46564.69;5074479;28;20032;-64
2023/07/16 03:41:02;;;;;;;8.17;2.37;;;;;;;-145.18;100.00;46560.78;5075369;28;20476;-64
2023/07/16 03:43:27;;;;;;;9.03;3.00;;;;;;;-145.18;100.00;46564.69;5073603;28;20056;-64
2023/07/16 03:45:53;;;;;;;8.57;2.93;;;;;;;-145.18;100.00;46562.72;5074465;28;20040;-64
2023/07/16 03:48:18;;;;;;;10.93;3.33;;;;;;;-145.18;100.00;46570.53;5068411;28;20028;-65
2023/07/16 03:50:43;;;;;;;11.77;3.13;;;;;;;-145.18;100.00;46560.78;5068438;28;20037;-65
2023/07/16 03:53:09;;;;;;;11.20;4.13;;;;;;;-145.18;100.00;46568.59;5073717;28;20037;-64
2023/07/16 03:55:35;;;;;;;9.27;3.03;;;;;;;-145.18;100.00;46568.59;5074707;28;20067;-64
2023/07/16 03:58:01;;;;;;;11.70;3.40;;;;;;;-145.18;100.00;46564.69;5073720;28;20495;-64
2023/07/16 04:00:26;;;;;;;10.73;4.00;;;;;;;-145.18;100.00;46568.59;5056350;28;20040;-64
2023/07/16 04:02:52;;;;;;;10.73;3.60;;;;;;;-145.18;100.00;46572.50;5074275;28;20093;-64
2023/07/16 04:05:18;;;;;;;8.30;3.20;;;;;;;-145.18;100.00;46566.63;5074715;28;20052;-64
2023/07/16 04:07:43;;;;;;;14.40;3.17;;;;;;;-145.18;100.00;46566.63;5074665;28;20059;-65
2023/07/16 04:10:09;;;;;;;8.07;2.90;;;;;;;-145.18;100.00;46572.50;5074621;28;20456;-65
2023/07/16 04:12:34;;;;;;;6.90;2.93;;;;;;;-145.18;100.00;46562.72;5074607;28;20510;-65
2023/07/16 04:15:00;;;;;;;13.93;3.30;;;;;;;-145.18;100.00;46584.22;5074472;28;20123;-65
2023/07/16 04:17:25;;;;;;;6.33;3.27;;;;;;;-145.18;100.00;46556.88;5073805;28;20043;-65
2023/07/16 04:19:51;;;;;;;9.97;3.23;;;;;;;-145.18;100.00;46558.81;5074564;28;20052;-65
2023/07/16 04:22:16;;;;;;;6.80;2.90;;;;;;;-145.18;100.00;46574.44;5074186;28;20058;-65
2023/07/16 04:24:42;;;;;;;6.10;3.00;;;;;;;-145.18;100.00;46572.50;5074547;28;20119;-65
2023/07/16 04:27:07;;;;;;;10.10;2.60;;;;;;;-145.18;100.00;46570.53;5077700;28;20058;-65
2023/07/16 04:29:33;;;;;;;7.13;2.87;;;;;;;-145.18;100.00;46560.78;5069125;28;20056;-64
2023/07/16 04:31:58;;;;;;;8.33;3.17;;;;;;;-145.18;100.00;46572.50;5072846;28;20032;-64
2023/07/16 04:34:24;;;;;;;6.60;3.13;;;;;;;-145.18;100.00;46580.31;5070320;28;20082;-65
2023/07/16 04:36:49;;;;;;;10.53;3.63;;;;;;;-145.18;100.00;46574.44;5070118;28;20036;-65
2023/07/16 04:39:14;;;;;;;9.70;3.27;;;;;;;-145.18;100.00;46570.53;5061237;28;20041;-65
2023/07/16 04:41:40;;;;;;;8.60;3.30;;;;;;;-145.18;100.00;46566.63;5061584;28;20396;-60
2023/07/16 04:44:05;;;;;;;7.97;4.07;;;;;;;-145.18;100.00;46578.34;5074637;28;20605;-61
2023/07/16 04:46:31;;;;;;;6.17;3.30;;;;;;;-145.18;100.00;46584.22;5068107;28;20021;-61
2023/07/16 04:48:56;;;;;;;13.60;4.57;;;;;;;-145.18;100.00;46592.03;5072018;28;20052;-61
2023/07/16 04:51:22;;;;;;;11.07;3.83;;;;;;;-145.18;100.00;46597.88;5071604;28;20082;-61
2023/07/16 04:53:48;;;;;;;10.03;4.17;;;;;;;-145.18;100.00;46590.06;5071104;28;20433;-61
2023/07/16 04:56:14;;;;;;;12.20;4.13;;;;;;;-145.18;100.00;46582.25;5075678;28;20032;-61
2023/07/16 04:58:40;;;;;;;10.80;4.07;;;;;;;-145.18;100.00;46582.25;5073588;28;20384;-61
2023/07/16 05:01:05;;;;;;;7.83;3.93;;;;;;;-145.18;100.00;46605.69;5067475;28;20033;-61
2023/07/16 05:03:31;;;;;;;8.53;3.30;;;;;;;-145.18;100.00;46597.88;5073430;28;20043;-60
2023/07/16 05:05:56;;;;;;;12.07;3.70;;;;;;;-145.18;100.00;46584.22;5073636;28;20054;-61
2023/07/16 05:08:21;;;;;;;6.93;3.53;;;;;;;-145.18;100.00;46584.22;5066686;28;20033;-60
2023/07/16 05:10:47;;;;;;;9.33;3.30;;;;;;;-145.18;100.00;46590.06;5072542;28;20028;-60
2023/07/16 05:13:12;;;;;;;6.30;3.40;;;;;;;-145.18;100.00;46597.88;5071889;28;20040;-61
2023/07/16 05:15:38;;;;;;;8.90;3.97;;;;;;;-145.18;100.00;46609.59;5073131;28;20020;-61
2023/07/16 05:18:03;;;;;;;7.77;3.70;;;;;;;-145.18;100.00;46617.41;5073274;28;20052;-60
2023/07/16 05:20:29;;;;;;;12.10;4.67;;;;;;;-145.18;100.00;46599.84;5072744;28;20028;-61
2023/07/16 05:22:54;;;;;;;9.40;3.63;;;;;;;-145.18;100.00;46613.50;5060780;28;20074;-61
2023/07/16 05:25:19;;;;;;;8.77;3.30;;;;;;;-145.18;100.00;46623.28;5055207;28;20492;-61
2023/07/16 05:27:45;;;;;;;8.60;3.60;;;;;;;-145.18;100.00;46629.13;5071491;28;20115;-61
2023/07/16 05:30:10;;;;;;;13.07;4.13;;;;;;;-145.18;100.00;46625.22;5071819;28;20021;-61
2023/07/16 05:32:36;;;;;;;10.10;3.70;;;;;;;-145.18;100.00;46625.22;5072333;28;20155;-59
2023/07/16 05:35:01;;;;;;;8.37;3.60;;;;;;;-145.18;100.00;46633.06;5061211;28;20111;-58
2023/07/16 05:37:27;;;;;;;10.33;3.67;;;;;;;-145.18;100.00;46617.41;5062486;28;20484;-59
2023/07/16 05:39:52;;;;;;;8.97;4.07;;;;;;;-145.18;100.00;46605.69;5049642;28;20041;-58
2023/07/16 05:42:17;;;;;;;9.47;3.63;;;;;;;-145.18;100.00;46619.38;5071281;28;20083;-59
2023/07/16 05:44:45;;;;;;;11.00;3.87;;;;;;;-145.18;100.00;46605.69;5070837;28;20063;-59
2023/07/16 05:47:10;;;;;;;8.20;3.13;;;;;;;-145.18;100.00;46595.94;5062508;28;20112;-59
2023/07/16 05:49:36;;;;;;;9.53;3.87;;;;;;;-145.18;100.00;46595.94;5040114;28;20120;-59
2023/07/16 05:52:01;;;;;;;8.30;3.80;;;;;;;-145.18;100.00;46607.66;5066969;28;20074;-64
2023/07/16 05:54:26;;;;;;;9.57;4.17;;;;;;;-145.18;100.00;46593.97;5072311;28;20032;-64
2023/07/16 05:56:53;;;;;;;10.27;4.17;;;;;;;-145.18;100.00;46592.03;5071842;28;20044;-64
2023/07/16 05:59:18;;;;;;;15.77;4.03;;;;;;;-145.18;100.00;46562.72;5072165;28;20107;-64
2023/07/16 06:01:43;;;;;;;9.97;3.47;;;;;;;-145.18;100.00;46566.63;5084276;28;20528;-64
2023/07/16 06:04:09;;;;;;;7.80;3.40;;;;;;;-145.18;100.00;46584.22;5066008;28;20021;-64
2023/07/16 06:06:34;;;;;;;9.97;4.27;;;;;;;-145.18;100.00;46605.69;5072838;28;20496;-64
2023/07/16 06:08:59;;;;;;;10.37;3.80;;;;;;;-145.18;100.00;46584.22;5072153;28;20031;-64
2023/07/16 06:11:25;;;;;;;13.03;4.73;;;;;;;-145.18;100.00;46595.94;5073777;28;20078;-64
2023/07/16 06:13:54;;;;;;;10.53;4.03;;;;;;;-145.18;100.00;46615.47;5072228;28;20671;-64
2023/07/16 06:16:19;;;;;;;13.57;4.57;;;;;;;-145.18;100.00;46617.41;5072661;28;20073;-64
2023/07/16 06:18:45;;;;;;;9.90;4.30;;;;;;;-145.18;100.00;46605.69;5063961;28;20106;-64
2023/07/16 06:21:11;;;;;;;12.57;4.90;;;;;;;-145.18;100.00;46586.16;5067816;28;20121;-64
2023/07/16 06:23:38;;;;;;;16.03;4.90;;;;;;;-145.18;100.00;46621.31;5067600;28;20040;-64
2023/07/16 06:26:03;;;;;;;11.87;4.53;;;;;;;-145.18;100.00;46617.41;5069323;28;20028;-64
2023/07/16 06:28:28;;;;;;;14.13;4.57;;;;;;;-145.18;100.00;46613.50;5070593;28;20059;-64
2023/07/16 06:30:54;;;;;;;14.87;4.67;;;;;;;-145.18;100.00;46599.84;5070193;28;20426;-64
2023/07/16 06:33:19;;;;;;;14.67;4.13;;;;;;;-145.18;100.00;46597.88;5068413;28;20059;-64
2023/07/16 06:35:47;;;;;;;9.87;4.57;;;;;;;-145.18;100.00;46613.50;5064763;28;20049;-63
2023/07/16 06:38:13;;;;;;;12.83;4.60;;;;;;;-145.18;100.00;46607.66;5067762;28;20097;-64
2023/07/16 06:40:38;;;;;;;15.20;4.70;;;;;;;-145.18;100.00;46595.94;5067418;28;20463;-64
2023/07/16 06:43:03;;;;;;;14.97;4.80;;;;;;;-145.18;100.00;46619.38;5066984;28;20166;-64
2023/07/16 06:45:29;;;;;;;14.37;4.27;;;;;;;-145.18;100.00;46613.50;5067864;28;20079;-64
2023/07/16 06:47:54;;;;;;;7.23;3.70;;;;;;;-145.18;100.00;46611.56;5064718;28;20134;-64
2023/07/16 06:50:19;;;;;;;9.03;4.23;;;;;;;-145.18;100.00;46615.47;5064884;28;20129;-64
2023/07/16 06:52:45;;;;;;;7.07;3.57;;;;;;;-145.18;100.00;46613.50;5069957;28;20369;-64
2023/07/16 06:55:10;;;;;;;9.27;4.13;;;;;;;-145.18;100.00;46623.28;5055518;28;20067;-64
2023/07/16 06:57:36;;;;;;;8.27;4.53;;;;;;;-145.18;100.00;46593.97;5069480;28;20040;-65
2023/07/16 07:00:02;;;;;;;12.47;4.70;;;;;;;-145.18;100.00;46623.28;5060819;28;20032;-64
2023/07/16 07:02:28;;;;;;;8.33;4.77;;;;;;;-145.18;100.00;46590.06;5072741;28;20035;-64
2023/07/16 07:04:53;;;;;;;9.53;3.83;;;;;;;-145.18;100.00;46605.69;5075767;28;20024;-63
2023/07/16 07:07:19;;;;;;;10.90;4.53;;;;;;;-145.18;100.00;46623.28;5075691;28;20029;-64
2023/07/16 07:09:48;;;;;;;10.57;4.17;;;;;;;-145.18;100.00;46621.31;5074221;28;20716;-63
2023/07/16 07:12:13;;;;;;;14.97;4.03;;;;;;;-145.18;100.00;46582.25;5074222;28;20686;-63
2023/07/16 07:14:39;;;;;;;11.83;4.40;;;;;;;-145.18;100.00;46576.41;5075798;28;20033;-64
2023/07/16 07:17:05;;;;;;;8.73;4.27;;;;;;;-145.18;100.00;46597.88;5075063;28;20032;-63
2023/07/16 07:19:32;;;;;;;10.00;4.37;;;;;;;-145.18;100.00;46595.94;5075599;28;20115;-64
2023/07/16 07:21:57;;;;;;;12.13;4.63;;;;;;;-145.18;100.00;46595.94;5075077;28;20132;-63
2023/07/16 07:24:23;;;;;;;11.67;4.30;;;;;;;-145.18;100.00;46627.19;5075368;28;20131;-63
2023/07/16 07:26:48;;;;;;;14.23;4.67;;;;;;;-145.18;100.00;46625.22;5074860;28;20119;-63
2023/07/16 07:29:14;;;;;;;10.30;4.47;;;;;;;-145.18;100.00;46623.28;5075792;28;20120;-63
2023/07/16 07:31:39;;;;;;;11.00;4.83;;;;;;;-145.18;100.00;46644.78;5075066;28;20029;-63
2023/07/16 07:34:05;;;;;;;7.47;4.00;;;;;;;-145.18;100.00;46668.22;5074786;28;20040;-63
2023/07/16 07:36:30;;;;;;;12.83;4.53;;;;;;;-145.18;100.00;46679.94;5075259;28;20082;-63
2023/07/16 07:38:55;;;;;;;11.97;4.83;;;;;;;-145.18;100.00;46758.06;5075356;28;20056;-63
2023/07/16 07:41:21;;;;;;;7.87;4.07;;;;;;;-145.18;100.00;46683.84;5074830;28;20395;-63
2023/07/16 07:43:46;;;;;;;8.40;4.27;;;;;;;-145.18;100.00;46648.69;5074872;28;20102;-64
2023/07/16 07:46:11;;;;;;;8.53;4.10;;;;;;;-145.18;100.00;46732.66;5074508;28;20094;-63
2023/07/16 07:48:37;;;;;;;12.53;4.40;;;;;;;-145.18;100.00;46703.38;5076061;28;20040;-63
2023/07/16 07:51:02;;;;;;;8.97;3.77;;;;;;;-145.18;100.00;46779.56;5074025;28;20082;-63
2023/07/16 07:53:27;;;;;;;9.33;3.87;;;;;;;-145.18;100.00;46791.28;5075094;28;20124;-63
2023/07/16 07:55:54;;;;;;;14.03;5.07;;;;;;;-145.18;100.00;46947.53;5071920;28;20480;-64
2023/07/16 07:58:19;;;;;;;12.07;5.37;;;;;;;-145.18;100.00;47031.53;5089582;28;20060;-63
2023/07/16 08:00:45;;;;;;;8.23;4.07;;;;;;;-145.18;100.00;46810.81;5074218;28;20119;-63
2023/07/16 08:03:10;;;;;;;9.83;4.80;;;;;;;-145.18;100.00;46683.84;5074066;28;20047;-64
2023/07/16 08:05:35;;;;;;;11.10;4.60;;;;;;;-145.18;100.00;46664.31;5074493;28;20040;-63
2023/07/16 08:08:01;;;;;;;7.60;4.03;;;;;;;-145.18;100.00;46629.13;5074730;28;20052;-63
2023/07/16 08:10:26;;;;;;;11.97;4.27;;;;;;;-145.18;100.00;46621.31;5074622;28;20035;-63
2023/07/16 08:12:52;;;;;;;10.63;4.83;;;;;;;-145.18;100.00;46629.13;5074763;28;20043;-59
2023/07/16 08:15:18;;;;;;;12.07;4.20;;;;;;;-145.18;100.00;46668.22;5068193;28;20071;-60
2023/07/16 08:17:44;;;;;;;9.20;4.00;;;;;;;-145.18;100.00;46652.59;5060071;28;20028;-59
2023/07/16 08:20:11;;;;;;;13.87;4.30;;;;;;;-145.18;100.00;46676.03;5058831;28;20060;-59
2023/07/16 08:22:36;;;;;;;8.80;4.30;;;;;;;-145.18;100.00;46668.22;5074120;28;20547;-59
2023/07/16 08:25:03;;;;;;;7.80;3.83;;;;;;;-145.18;100.00;46629.13;5074281;28;20063;-59
2023/07/16 08:27:29;;;;;;;11.23;4.40;;;;;;;-145.18;100.00;46629.13;5074317;28;20107;-58
2023/07/16 08:29:54;;;;;;;13.13;4.63;;;;;;;-145.18;100.00;46666.25;5074296;28;20048;-59
2023/07/16 08:32:21;;;;;;;9.27;5.07;;;;;;;-145.18;100.00;46617.41;5073628;28;20067;-59
2023/07/16 08:34:46;;;;;;;12.67;4.47;;;;;;;-145.18;100.00;46638.91;5068737;28;20025;-59
2023/07/16 08:37:11;;;;;;;9.63;5.10;;;;;;;-145.18;100.00;46613.50;5072360;28;20518;-58
2023/07/16 08:39:38;;;;;;;9.40;4.50;;;;;;;-145.18;100.00;46654.53;5068771;28;20061;-59
2023/07/16 08:42:04;;;;;;;10.57;4.70;;;;;;;-145.18;100.00;46619.38;5065269;28;20052;-59
2023/07/16 08:44:30;;;;;;;7.57;4.27;;;;;;;-145.18;100.00;46660.41;5069841;28;20045;-59
2023/07/16 08:46:56;;;;;;;8.60;4.20;;;;;;;-145.18;100.00;46732.66;5064554;28;20032;-59
2023/07/16 08:49:22;;;;;;;8.80;4.80;;;;;;;-145.18;100.00;46711.19;5064239;28;20016;-59
2023/07/16 08:51:48;;;;;;;11.43;4.60;;;;;;;-145.18;100.00;46816.66;5067342;28;20503;-59
2023/07/16 08:54:19;;;;;;;12.77;4.27;;;;;;;-145.18;100.00;47068.66;5066338;28;20537;-59
2023/07/16 08:56:45;;;;;;;8.13;4.37;;;;;;;-145.18;100.00;47172.19;5072457;28;20392;-59
2023/07/16 08:59:11;;;;;;;14.80;4.07;;;;;;;-145.18;100.00;47203.47;5071803;28;20492;-59
2023/07/16 09:01:37;;;;;;;12.83;4.13;;;;;;;-145.18;100.00;47213.22;5068215;28;20099;-59
2023/07/16 09:04:03;;;;;;;10.87;4.13;;;;;;;-145.18;100.00;47232.75;5067162;28;20044;-59
2023/07/16 09:06:29;;;;;;;11.13;4.10;;;;;;;-145.18;100.00;47219.09;5061448;28;20078;-59
2023/07/16 09:08:55;;;;;;;7.73;3.90;;;;;;;-145.18;100.00;47256.22;5070067;28;20033;-59
2023/07/16 09:11:21;;;;;;;8.77;3.93;;;;;;;-145.18;100.00;47199.56;5063943;28;20032;-59
2023/07/16 09:13:47;;;;;;;9.60;3.97;;;;;;;-145.18;100.00;47160.47;5069985;28;20090;-59
2023/07/16 09:16:16;;;;;;;8.43;3.93;;;;;;;-145.18;100.00;46842.06;5071853;28;20439;-59
2023/07/16 09:18:42;;;;;;;10.60;4.43;;;;;;;-145.18;100.00;46855.72;5063651;28;20025;-59
2023/07/16 09:21:08;;;;;;;8.77;4.20;;;;;;;-145.18;100.00;46816.66;5060336;28;20069;-59
2023/07/16 09:23:34;;;;;;;10.80;4.40;;;;;;;-145.18;100.00;46775.66;5051180;28;20040;-59
2023/07/16 09:25:59;;;;;;;11.80;4.63;;;;;;;-145.18;100.00;46736.56;5060166;28;20028;-60
2023/07/16 09:28:25;;;;;;;7.60;4.13;;;;;;;-145.18;100.00;46781.50;5057794;28;20029;-59
2023/07/16 09:30:52;;;;;;;7.53;4.00;;;;;;;-145.18;100.00;46732.66;5062049;28;20102;-59
2023/07/16 09:33:19;;;;;;;13.80;4.13;;;;;;;-145.18;100.00;46652.59;5063759;28;20041;-59
2023/07/16 09:35:50;;;;;;;9.03;4.13;;;;;;;-145.18;100.00;46625.22;5058073;28;20048;-59
2023/07/16 09:38:17;;;;;;;9.03;4.10;;;;;;;-145.18;100.00;46732.66;5062217;28;20029;-59
2023/07/16 09:40:43;;;;;;;10.53;3.73;;;;;;;-145.18;100.00;47051.09;5064155;28;20760;-59
2023/07/16 09:43:09;;;;;;;10.40;3.50;;;;;;;-145.18;100.00;47133.13;5072125;28;20036;-59
2023/07/16 09:45:35;;;;;;;14.83;5.07;;;;;;;-145.18;100.00;47174.16;5072076;28;20023;-60
2023/07/16 09:48:02;;;;;;;10.03;4.43;;;;;;;-145.18;100.00;47123.38;5075096;28;20028;-59
2023/07/16 09:50:32;;;;;;;10.00;4.40;;;;;;;-145.18;100.00;47156.56;5072405;28;20047;-59
2023/07/16 09:52:57;;;;;;;12.20;3.63;;;;;;;-145.18;100.00;47183.94;5071753;28;20051;-59
2023/07/16 09:55:24;;;;;;;8.27;4.40;;;;;;;-145.18;100.00;47207.38;5070769;28;20496;-59
2023/07/16 09:57:53;;;;;;;10.57;4.20;;;;;;;-145.18;100.00;47228.84;5071757;28;20025;-59
2023/07/16 10:00:21;;;;;;;8.07;3.60;;;;;;;-145.18;100.00;47250.34;5072053;28;20086;-59
2023/07/16 10:02:47;;;;;;;13.20;4.77;;;;;;;-145.18;100.00;47170.25;5070071;28;20055;-59
2023/07/16 10:05:16;;;;;;;7.93;3.80;;;;;;;-145.18;100.00;47031.53;5065135;28;20729;-58
2023/07/16 10:07:43;;;;;;;8.17;4.07;;;;;;;-145.18;100.00;46803.00;5071715;28;20032;-59
2023/07/16 10:10:10;;;;;;;9.50;4.40;;;;;;;-145.18;100.00;46871.38;5068887;28;20033;-59
2023/07/16 10:12:36;;;;;;;10.80;4.13;;;;;;;-145.18;100.00;46912.38;5070128;28;20028;-59
2023/07/16 10:15:03;;;;;;;11.97;4.43;;;;;;;-145.18;100.00;46887.00;5072135;28;20037;-59
2023/07/16 10:17:31;;;;;;;9.47;4.83;;;;;;;-145.18;100.00;46761.97;5071994;28;20032;-59
2023/07/16 10:19:59;;;;;;;8.10;3.97;;;;;;;-145.18;100.00;46691.66;5071830;28;20028;-59
2023/07/16 10:22:32;;;;;;;12.50;4.60;;;;;;;-145.18;100.00;46631.09;5071569;28;20412;-59
2023/07/16 10:24:57;;;;;;;11.33;4.83;;;;;;;-145.18;100.00;46617.41;5066620;28;20025;-59
2023/07/16 10:27:34;;;;;;;10.77;4.03;;;;;;;-145.18;100.00;46566.63;5070613;28;20039;-59
2023/07/16 10:30:04;;;;;;;9.57;4.43;;;;;;;-145.18;100.00;46588.13;5072173;28;20048;-59
2023/07/16 10:32:31;;;;;;;8.47;4.00;;;;;;;-145.18;100.00;46584.22;5080239;28;20035;-64
2023/07/16 10:34:58;;;;;;;10.60;3.97;;;;;;;-145.18;100.00;46590.06;5070384;28;20032;-63
2023/07/16 10:37:24;;;;;;;12.30;4.73;;;;;;;-145.18;100.00;46578.34;5064837;28;20048;-64
2023/07/16 10:39:52;;;;;;;8.67;4.03;;;;;;;-145.18;100.00;46562.72;5065431;28;20029;-63
2023/07/16 10:42:19;;;;;;;8.07;3.90;;;;;;;-145.18;100.00;46908.47;5070915;28;20041;-63
2023/07/16 10:44:44;;;;;;;8.63;4.10;;;;;;;-145.18;100.00;46990.53;5067815;28;20383;-63
2023/07/16 10:47:20;;;;;;;9.67;4.43;;;;;;;-145.18;100.00;47105.78;5068141;28;20044;-64
2023/07/16 10:49:45;;;;;;;10.00;4.10;;;;;;;-145.18;100.00;47160.47;5065213;28;20021;-63
2023/07/16 10:52:10;;;;;;;9.87;4.00;;;;;;;-145.18;100.00;47174.16;5062415;28;20106;-63
2023/07/16 10:54:36;;;;;;;10.30;4.43;;;;;;;-145.18;100.00;47205.41;5061842;28;20036;-63
2023/07/16 10:57:04;;;;;;;9.63;4.77;;;;;;;-145.18;100.00;47181.97;5068533;28;20035;-63
2023/07/16 10:59:29;;;;;;;7.07;4.23;;;;;;;-145.18;100.00;46933.88;5069614;28;20082;-63
2023/07/16 11:01:55;;;;;;;7.70;3.50;;;;;;;-145.18;100.00;46685.78;5068684;28;20494;-63